createdAt,value
2019-01-13T00:00:34.154Z,7.43
2019-01-13T00:03:03.298Z,7.43
2019-01-13T00:05:32.384Z,7.45
2019-01-13T00:08:01.367Z,7.44
2019-01-13T00:10:30.314Z,7.46
2019-01-13T00:12:59.152Z,7.42
2019-01-13T00:15:29.503Z,7.48
2019-01-13T00:17:58.471Z,7.46
2019-01-13T00:20:28.731Z,7.43
2019-01-13T00:22:57.735Z,7.40
2019-01-13T00:25:28.679Z,7.42
2019-01-13T00:27:59.973Z,7.50
2019-01-13T00:30:29.109Z,7.54
2019-01-13T00:32:58.088Z,7.51
2019-01-13T00:35:28.263Z,7.56
2019-01-13T00:37:59.238Z,7.53
2019-01-13T00:40:28.105Z,7.52
2019-01-13T00:42:57.009Z,7.46
2019-01-13T00:45:26.228Z,7.47
2019-01-13T00:47:55.245Z,7.51
2019-01-13T00:50:24.191Z,7.53
2019-01-13T00:52:53.098Z,7.53
2019-01-13T00:55:22.127Z,7.51
2019-01-13T00:57:51.054Z,7.47
2019-01-13T01:00:26.417Z,7.44
2019-01-13T01:02:52.198Z,7.48
2019-01-13T01:05:21.178Z,7.44
2019-01-13T01:07:51.237Z,7.48
2019-01-13T01:10:20.987Z,7.43
2019-01-13T01:12:50.020Z,7.44
2019-01-13T01:15:18.972Z,7.44
2019-01-13T01:17:48.018Z,7.40
2019-01-13T01:20:18.258Z,7.41
2019-01-13T01:22:48.744Z,7.45
2019-01-13T01:25:20.348Z,7.42
2019-01-13T01:27:50.120Z,7.42
2019-01-13T01:30:20.009Z,7.45
2019-01-13T01:32:49.493Z,7.41
2019-01-13T01:35:18.968Z,7.41
2019-01-13T01:37:48.095Z,7.42
2019-01-13T01:40:19.102Z,7.38
2019-01-13T01:42:48.528Z,7.41
2019-01-13T01:45:20.954Z,7.41
2019-01-13T01:47:54.449Z,7.37
2019-01-13T01:50:23.339Z,7.39
2019-01-13T01:52:52.314Z,7.38
2019-01-13T01:55:21.285Z,7.35
2019-01-13T01:57:53.686Z,7.35
2019-01-13T02:00:24.793Z,7.31
2019-01-13T02:02:54.001Z,7.38
2019-01-13T02:05:22.986Z,7.40
2019-01-13T02:07:52.027Z,7.38
2019-01-13T02:10:23.013Z,7.36
2019-01-13T02:12:53.186Z,7.35
2019-01-13T02:15:27.108Z,7.38
2019-01-13T02:17:56.076Z,7.36
2019-01-13T02:20:25.449Z,7.30
2019-01-13T02:22:55.963Z,7.31
2019-01-13T02:25:29.113Z,7.33
2019-01-13T02:28:00.116Z,7.34
2019-01-13T02:30:30.442Z,7.30
2019-01-13T02:32:59.643Z,7.30
2019-01-13T02:35:28.569Z,7.31
2019-01-13T02:37:57.605Z,7.38
2019-01-13T02:40:26.507Z,7.31
2019-01-13T02:42:55.408Z,7.33
2019-01-13T02:45:26.791Z,7.30
2019-01-13T02:47:58.254Z,7.30
2019-01-13T02:50:27.124Z,7.26
2019-01-13T02:52:58.416Z,7.33
2019-01-13T02:55:27.345Z,7.36
2019-01-13T02:57:56.263Z,7.35
2019-01-13T03:00:26.483Z,7.34
2019-01-13T03:02:55.399Z,7.36
2019-01-13T03:05:24.315Z,7.38
2019-01-13T03:07:53.314Z,7.36
2019-01-13T03:10:24.068Z,7.37
2019-01-13T03:12:52.946Z,7.36
2019-01-13T03:15:22.997Z,7.35
2019-01-13T03:17:52.023Z,7.31
2019-01-13T03:20:21.002Z,7.33
2019-01-13T03:22:49.956Z,7.35
2019-01-13T03:25:24.253Z,7.37
2019-01-13T03:27:53.659Z,7.33
2019-01-13T03:30:26.343Z,7.31
2019-01-13T03:32:55.547Z,7.31
2019-01-13T03:36:32.177Z,7.26
2019-01-13T03:39:02.721Z,7.30
2019-01-13T03:41:31.990Z,7.27
2019-01-13T03:44:02.058Z,7.24
2019-01-13T03:46:31.311Z,7.24
2019-01-13T03:49:00.744Z,7.28
2019-01-13T03:51:29.767Z,7.22
2019-01-13T03:54:01.665Z,7.24
2019-01-13T03:56:30.713Z,7.26
2019-01-13T03:58:59.934Z,7.29
2019-01-13T04:01:28.871Z,7.30
2019-01-13T04:03:57.914Z,7.31
2019-01-13T04:06:26.853Z,7.38
2019-01-13T04:08:56.035Z,7.36
2019-01-13T04:11:25.070Z,7.35
2019-01-13T04:13:54.817Z,7.34
2019-01-13T04:16:25.864Z,7.33
2019-01-13T04:18:55.024Z,7.30
2019-01-13T04:21:24.190Z,7.33
2019-01-13T04:23:54.423Z,7.30
2019-01-13T04:26:24.541Z,7.28
2019-01-13T04:28:53.624Z,7.29
2019-01-13T04:31:26.940Z,7.27
2019-01-13T04:33:53.897Z,7.27
2019-01-13T04:36:22.918Z,7.23
2019-01-13T04:38:52.185Z,7.25
2019-01-13T04:41:21.158Z,7.25
2019-01-13T04:43:51.156Z,7.26
2019-01-13T04:46:20.277Z,7.23
2019-01-13T04:48:49.515Z,7.23
2019-01-13T04:51:18.464Z,7.28
2019-01-13T04:53:47.450Z,7.28
2019-01-13T04:56:17.648Z,7.28
2019-01-13T04:58:47.918Z,7.28
2019-01-13T05:01:19.654Z,7.24
2019-01-13T05:03:49.089Z,7.26
2019-01-13T05:06:18.033Z,7.25
2019-01-13T05:08:47.015Z,7.23
2019-01-13T05:11:15.888Z,7.20
2019-01-13T05:13:44.749Z,7.18
2019-01-13T05:16:14.925Z,7.21
2019-01-13T05:18:46.337Z,7.19
2019-01-13T05:21:15.626Z,7.22
2019-01-13T05:23:48.898Z,7.19
2019-01-13T05:26:19.662Z,7.15
2019-01-13T05:28:49.420Z,7.17
2019-01-13T05:31:18.346Z,7.21
2019-01-13T05:33:47.325Z,7.24
2019-01-13T05:36:16.157Z,7.25
2019-01-13T05:38:45.330Z,7.26
2019-01-13T05:41:14.231Z,7.23
2019-01-13T05:43:44.655Z,7.30
2019-01-13T05:46:13.851Z,7.26
2019-01-13T05:48:42.771Z,7.26
2019-01-13T05:51:11.689Z,7.27
2019-01-13T05:53:40.881Z,7.25
2019-01-13T05:56:09.879Z,7.25
2019-01-13T05:58:38.947Z,7.32
2019-01-13T06:01:07.943Z,7.33
2019-01-13T06:03:36.788Z,7.32
2019-01-13T06:06:05.791Z,7.36
2019-01-13T06:08:34.619Z,7.31
2019-01-13T06:11:03.515Z,7.34
2019-01-13T06:13:32.507Z,7.37
2019-01-13T06:16:02.499Z,7.31
2019-01-13T06:18:31.389Z,7.32
2019-01-13T06:21:00.359Z,7.36
2019-01-13T06:23:29.257Z,7.41
2019-01-13T06:25:58.499Z,7.38
2019-01-13T06:28:27.424Z,7.33
2019-01-13T06:30:57.577Z,7.38
2019-01-13T06:33:26.356Z,7.31
2019-01-13T06:35:55.217Z,7.34
2019-01-13T06:38:24.127Z,7.35
2019-01-13T06:40:54.155Z,7.34
2019-01-13T06:43:23.518Z,7.34
2019-01-13T06:49:27.148Z,7.35
2019-01-13T07:02:53.348Z,7.33
2019-01-13T07:05:25.953Z,7.28
2019-01-13T07:07:58.117Z,7.31
2019-01-13T07:10:31.588Z,7.35
2019-01-13T07:13:13.068Z,7.32
2019-01-13T07:15:47.131Z,7.38
2019-01-13T07:18:19.073Z,7.36
2019-01-13T07:20:47.799Z,7.43
2019-01-13T07:23:16.610Z,7.46
2019-01-13T07:25:45.418Z,7.43
2019-01-13T07:28:45.891Z,7.47
2019-01-13T07:31:24.387Z,7.50
2019-01-13T07:33:53.175Z,7.49
2019-01-13T07:36:21.904Z,7.47
2019-01-13T07:38:51.698Z,7.52
2019-01-13T07:41:23.464Z,7.56
2019-01-13T07:43:52.468Z,7.53
2019-01-13T07:46:21.260Z,7.62
2019-01-13T07:48:50.088Z,7.68
2019-01-13T07:51:18.810Z,7.60
2019-01-13T07:53:47.498Z,7.58
2019-01-13T07:56:16.264Z,7.53
2019-01-13T07:58:45.051Z,7.55
2019-01-13T08:01:13.997Z,7.55
2019-01-13T08:03:42.866Z,7.54
2019-01-13T08:06:11.622Z,7.56
2019-01-13T08:08:40.582Z,7.55
2019-01-13T08:11:09.931Z,7.61
2019-01-13T08:13:39.222Z,7.58
2019-01-13T08:16:07.980Z,7.65
2019-01-13T08:18:37.505Z,7.64
2019-01-13T08:21:08.648Z,7.60
2019-01-13T08:23:49.253Z,7.54
2019-01-13T08:26:50.626Z,7.67
2019-01-13T08:37:22.261Z,7.61
2019-01-13T08:47:07.157Z,7.63
2019-01-13T08:49:41.727Z,7.63
2019-01-13T08:52:20.704Z,7.63
2019-01-13T08:54:53.299Z,7.68
2019-01-13T08:57:32.823Z,7.65
2019-01-13T09:00:10.866Z,7.68
2019-01-13T09:02:44.558Z,7.73
2019-01-13T09:05:15.255Z,7.74
2019-01-13T09:07:53.726Z,7.75
2019-01-13T09:13:36.820Z,7.77
2019-01-13T09:16:18.298Z,7.78
2019-01-13T09:18:53.142Z,7.80
2019-01-13T09:21:33.188Z,7.80
2019-01-13T09:24:13.748Z,7.81
2019-01-13T09:26:51.183Z,7.84
2019-01-13T09:30:00.720Z,7.83
2019-01-13T09:36:29.642Z,7.94
2019-01-13T09:42:42.912Z,7.96
2019-01-13T09:45:18.262Z,7.98
2019-01-13T09:47:47.676Z,8.00
2019-01-13T09:50:18.183Z,8.03
2019-01-13T09:52:51.866Z,8.02
2019-01-13T09:55:23.905Z,8.06
2019-01-13T09:57:55.862Z,8.09
2019-01-13T10:00:33.466Z,8.09
2019-01-13T10:03:13.893Z,8.12
2019-01-13T10:05:58.156Z,8.10
2019-01-13T10:12:10.891Z,8.23
2019-01-13T10:14:45.372Z,8.27
2019-01-13T10:18:14.386Z,8.29
2019-01-13T10:21:25.249Z,8.27
2019-01-13T10:24:21.064Z,8.28
2019-01-13T10:27:56.519Z,8.29
2019-01-13T10:30:34.549Z,8.31
2019-01-13T10:33:10.730Z,8.33
2019-01-13T10:35:49.909Z,8.35
2019-01-13T10:38:25.465Z,8.36
2019-01-13T10:40:52.117Z,8.38
2019-01-13T10:43:23.167Z,8.40
2019-01-13T10:45:55.240Z,8.46
2019-01-13T10:48:33.158Z,8.50
2019-01-13T10:51:08.122Z,8.57
2019-01-13T10:53:37.080Z,8.56
2019-01-13T10:56:08.087Z,8.56
2019-01-13T10:58:37.944Z,8.57
2019-01-13T11:01:10.492Z,8.62
2019-01-13T11:04:15.477Z,8.65
2019-01-13T11:06:51.142Z,8.65
2019-01-13T11:09:45.265Z,8.68
2019-01-13T11:12:12.008Z,8.68
2019-01-13T11:14:41.122Z,8.65
2019-01-13T11:17:18.387Z,8.67
2019-01-13T11:19:50.717Z,8.74
2019-01-13T11:22:21.890Z,8.71
2019-01-13T11:24:55.299Z,8.72
2019-01-13T11:27:25.062Z,8.71
2019-01-13T11:30:29.012Z,8.69
2019-01-13T11:33:09.582Z,8.75
2019-01-13T11:35:44.618Z,8.74
2019-01-13T11:38:29.231Z,8.73
2019-01-13T11:41:11.422Z,8.76
2019-01-13T11:43:48.446Z,8.74
2019-01-13T11:46:18.546Z,8.78
2019-01-13T11:48:48.332Z,8.79
2019-01-13T11:51:21.921Z,8.83
2019-01-13T11:53:51.377Z,8.90
2019-01-13T11:56:25.377Z,8.85
2019-01-13T11:58:54.925Z,8.86
2019-01-13T12:01:29.605Z,8.78
2019-01-13T12:03:56.331Z,8.78
2019-01-13T12:06:25.401Z,8.77
2019-01-13T12:16:05.933Z,8.77
2019-01-13T12:18:53.851Z,8.73
2019-01-13T12:21:22.760Z,8.77
2019-01-13T12:23:51.647Z,8.77
2019-01-13T12:26:20.553Z,8.82
2019-01-13T12:28:51.255Z,8.74
2019-01-13T12:31:20.302Z,8.76
2019-01-13T12:33:51.476Z,8.81
2019-01-13T12:36:23.666Z,8.76
2019-01-13T12:38:52.914Z,8.77
2019-01-13T12:41:21.822Z,8.76
2019-01-13T12:43:51.143Z,8.76
2019-01-13T12:46:40.108Z,8.82
2019-01-13T12:49:31.693Z,8.84
2019-01-13T12:52:04.323Z,8.90
2019-01-13T13:09:28.524Z,8.90
2019-01-13T13:28:02.379Z,8.93
2019-01-13T13:30:51.874Z,8.98
2019-01-13T13:33:21.162Z,9.00
2019-01-13T13:35:50.045Z,9.03
2019-01-13T13:38:18.966Z,9.02
2019-01-13T13:40:47.968Z,9.03
2019-01-13T13:43:17.019Z,9.05
2019-01-13T13:45:45.934Z,9.06
2019-01-13T13:48:15.952Z,9.08
2019-01-13T13:50:44.986Z,9.02
2019-01-13T13:53:14.227Z,9.03
2019-01-13T13:55:43.441Z,9.05
2019-01-13T13:58:12.394Z,9.08
2019-01-13T14:00:42.021Z,9.01
2019-01-13T14:03:13.641Z,9.03
2019-01-13T14:05:42.761Z,9.01
2019-01-13T14:08:12.045Z,9.05
2019-01-13T14:10:42.994Z,9.02
2019-01-13T14:13:12.160Z,8.99
2019-01-13T14:15:41.459Z,8.98
2019-01-13T14:18:25.442Z,9.00
2019-01-13T14:20:54.519Z,9.06
2019-01-13T14:23:23.562Z,8.97
2019-01-13T14:29:20.341Z,8.91
2019-01-13T14:31:49.280Z,8.93
2019-01-13T14:34:18.148Z,8.95
2019-01-13T14:36:47.135Z,8.94
2019-01-13T14:39:16.176Z,8.90
2019-01-13T14:41:45.447Z,8.87
2019-01-13T14:44:15.551Z,8.87
2019-01-13T14:46:46.882Z,8.88
2019-01-13T14:49:15.798Z,8.88
2019-01-13T14:51:44.780Z,8.90
2019-01-13T14:54:17.260Z,8.87
2019-01-13T14:56:46.317Z,8.84
2019-01-13T14:59:16.707Z,8.78
2019-01-13T15:01:46.875Z,8.76
2019-01-13T15:04:16.211Z,8.72
2019-01-13T15:06:47.459Z,8.68
2019-01-13T15:09:16.520Z,8.66
2019-01-13T15:11:47.579Z,8.65
2019-01-13T15:14:52.974Z,8.61
2019-01-13T15:17:22.052Z,8.56
2019-01-13T15:20:08.666Z,8.59
2019-01-13T15:22:37.777Z,8.58
2019-01-13T15:25:08.329Z,8.59
2019-01-13T15:27:37.752Z,8.50
2019-01-13T15:30:11.968Z,8.53
2019-01-13T15:32:40.976Z,8.53
2019-01-13T15:35:09.977Z,8.53
2019-01-13T15:37:38.978Z,8.54
2019-01-13T15:40:11.004Z,8.50
2019-01-13T15:42:39.889Z,8.51
2019-01-13T15:45:09.675Z,8.50
2019-01-13T15:48:44.276Z,8.50
2019-01-13T15:51:13.276Z,8.51
2019-01-13T15:53:42.386Z,8.48
2019-01-13T15:59:38.610Z,8.43
2019-01-13T16:02:07.626Z,8.44
2019-01-13T16:04:37.659Z,8.39
2019-01-13T16:07:07.156Z,8.35
2019-01-13T16:09:36.234Z,8.41
2019-01-13T16:12:05.398Z,8.29
2019-01-13T16:14:34.437Z,8.27
2019-01-13T16:17:04.185Z,8.33
2019-01-13T16:19:54.360Z,8.31
2019-01-13T16:22:23.870Z,8.19
2019-01-13T16:24:53.647Z,8.18
2019-01-13T16:27:23.305Z,8.25
2019-01-13T16:29:52.947Z,8.30
2019-01-13T16:32:21.926Z,8.21
2019-01-13T16:34:50.783Z,8.25
2019-01-13T16:37:19.687Z,8.25
2019-01-13T16:39:48.585Z,8.24
2019-01-13T16:42:21.996Z,8.17
2019-01-13T16:44:51.720Z,8.18
2019-01-13T16:47:20.660Z,8.13
2019-01-13T16:49:49.760Z,8.15
2019-01-13T16:52:18.640Z,8.22
2019-01-13T16:54:47.756Z,8.16
2019-01-13T16:57:16.958Z,8.16
2019-01-13T16:59:46.080Z,8.04
2019-01-13T17:02:15.130Z,8.15
2019-01-13T17:04:44.134Z,8.11
2019-01-13T17:07:13.292Z,8.22
2019-01-13T17:10:30.037Z,8.22
2019-01-13T17:12:59.034Z,8.23
2019-01-13T17:15:35.667Z,8.23
2019-01-13T17:18:05.551Z,8.29
2019-01-13T17:20:36.869Z,8.24
2019-01-13T17:23:06.070Z,8.32
2019-01-13T17:25:35.148Z,8.29
2019-01-13T17:28:04.317Z,8.30
2019-01-13T17:30:35.076Z,8.31
2019-01-13T17:33:04.072Z,8.28
2019-01-13T17:35:33.093Z,8.30
2019-01-13T17:38:02.112Z,8.31
2019-01-13T17:40:31.341Z,8.30
2019-01-13T17:43:00.372Z,8.31
2019-01-13T17:45:31.141Z,8.27
2019-01-13T17:48:00.342Z,8.30
2019-01-13T17:50:29.418Z,8.35
2019-01-13T17:52:58.507Z,8.33
2019-01-13T17:55:29.803Z,8.36
2019-01-13T17:57:59.274Z,8.40
2019-01-13T18:00:37.374Z,8.38
2019-01-13T18:03:07.382Z,8.43
2019-01-13T18:05:38.740Z,8.37
2019-01-13T18:08:10.277Z,8.37
2019-01-13T18:10:39.604Z,8.35
2019-01-13T18:13:08.474Z,8.36
2019-01-13T18:15:37.608Z,8.30
2019-01-13T18:18:06.610Z,8.32
2019-01-13T18:20:35.856Z,8.33
2019-01-13T18:23:04.858Z,8.34
2019-01-13T18:25:33.927Z,8.32
2019-01-13T18:28:02.946Z,8.37
2019-01-13T18:30:31.978Z,8.36
2019-01-13T18:33:01.018Z,8.32
2019-01-13T18:35:29.982Z,8.34
2019-01-13T18:37:59.045Z,8.31
2019-01-13T18:40:30.374Z,8.22
2019-01-13T18:42:59.328Z,8.15
2019-01-13T18:45:28.239Z,8.16
2019-01-13T18:47:57.255Z,8.12
2019-01-13T18:50:26.184Z,8.10
2019-01-13T18:52:58.675Z,8.10
2019-01-13T18:55:27.777Z,8.08
2019-01-13T18:57:56.641Z,8.09
2019-01-13T19:00:25.968Z,8.15
2019-01-13T19:03:51.384Z,8.10
2019-01-13T19:06:21.966Z,8.04
2019-01-13T19:08:52.469Z,8.14
2019-01-13T19:11:31.199Z,8.10
2019-01-13T19:14:20.613Z,8.05
2019-01-13T19:17:15.456Z,8.11
2019-01-13T19:20:19.977Z,8.23
2019-01-13T19:22:51.425Z,8.18
2019-01-13T19:25:28.733Z,8.14
2019-01-13T19:27:57.711Z,8.16
2019-01-13T19:30:26.672Z,8.16
2019-01-13T19:32:55.717Z,8.17
2019-01-13T19:35:24.719Z,8.14
2019-01-13T19:37:53.778Z,8.09
2019-01-13T19:40:22.725Z,8.03
2019-01-13T19:42:51.803Z,7.94
2019-01-13T19:45:21.570Z,7.96
2019-01-13T19:47:50.711Z,7.99
2019-01-13T19:50:21.837Z,7.99
2019-01-13T19:52:50.895Z,8.00
2019-01-13T19:55:20.208Z,7.94
2019-01-13T19:57:49.276Z,8.02
2019-01-13T20:00:24.362Z,8.04
2019-01-13T20:02:53.349Z,8.07
2019-01-13T20:05:22.709Z,8.07
2019-01-13T20:07:51.702Z,8.07
2019-01-13T20:10:21.797Z,8.06
2019-01-13T20:12:52.578Z,8.09
2019-01-13T20:15:24.165Z,8.03
2019-01-13T20:17:53.327Z,8.04
2019-01-13T20:20:23.707Z,7.97
2019-01-13T20:22:53.247Z,7.79
2019-01-13T20:25:22.499Z,7.74
2019-01-13T20:27:52.839Z,7.67
2019-01-13T20:30:29.945Z,7.62
2019-01-13T20:32:59.259Z,7.64
2019-01-13T20:35:28.303Z,7.61
2019-01-13T20:37:57.377Z,7.61
2019-01-13T20:40:26.755Z,7.57
2019-01-13T20:42:58.655Z,7.49
2019-01-13T20:45:32.989Z,7.46
2019-01-13T20:48:02.726Z,7.42
2019-01-13T20:50:34.324Z,7.38
2019-01-13T20:53:04.902Z,7.37
2019-01-13T20:55:33.883Z,7.33
2019-01-13T20:58:02.938Z,7.37
2019-01-13T21:00:32.775Z,7.32
2019-01-13T21:03:01.682Z,7.37
2019-01-13T21:05:30.695Z,7.33
2019-01-13T21:07:59.822Z,7.31
2019-01-13T21:10:28.861Z,7.29
2019-01-13T21:12:58.588Z,7.27
2019-01-13T21:15:32.648Z,7.27
2019-01-13T21:18:01.918Z,7.30
2019-01-13T21:20:31.133Z,7.21
2019-01-13T21:23:00.374Z,7.26
2019-01-13T21:25:29.437Z,7.18
2019-01-13T21:28:01.182Z,7.10
2019-01-13T21:30:33.505Z,7.11
2019-01-13T21:33:02.982Z,7.07
2019-01-13T21:35:34.399Z,7.05
2019-01-13T21:38:03.983Z,7.07
2019-01-13T21:40:33.126Z,7.06
2019-01-13T21:43:02.093Z,7.10
2019-01-13T21:48:58.678Z,7.07
2019-01-13T21:52:24.136Z,7.13
2019-01-13T21:54:53.104Z,7.10
2019-01-13T21:57:22.242Z,7.11
2019-01-13T21:59:51.247Z,7.10
2019-01-13T22:02:20.342Z,6.93
2019-01-13T22:04:49.302Z,6.93
2019-01-13T22:07:18.360Z,6.88
2019-01-13T22:09:47.343Z,6.90
2019-01-13T22:12:18.552Z,6.80
2019-01-13T22:14:49.393Z,6.77
2019-01-13T22:17:18.576Z,6.79
2019-01-13T22:19:47.876Z,6.77
2019-01-13T22:22:17.268Z,6.77
2019-01-13T22:24:46.290Z,6.68
2019-01-13T22:27:15.375Z,6.68
2019-01-13T22:29:50.452Z,6.65
2019-01-13T22:32:19.299Z,6.70
2019-01-13T22:34:48.242Z,6.61
2019-01-13T22:37:17.112Z,6.60
2019-01-13T22:39:47.168Z,6.57
2019-01-13T22:42:16.297Z,6.58
2019-01-13T22:44:47.428Z,6.56
2019-01-13T22:47:16.322Z,6.58
2019-01-13T22:49:45.354Z,6.51
2019-01-13T22:52:14.299Z,6.52
2019-01-13T22:54:43.402Z,6.53
2019-01-13T22:57:12.368Z,6.48
2019-01-13T22:59:41.267Z,6.33
2019-01-13T23:02:10.160Z,6.31
2019-01-13T23:04:39.013Z,6.40
2019-01-13T23:07:08.043Z,6.39
2019-01-13T23:09:36.934Z,6.37
2019-01-13T23:12:05.957Z,6.34
2019-01-13T23:14:34.878Z,6.28
2019-01-13T23:17:04.122Z,6.29
2019-01-13T23:19:33.106Z,6.33
2019-01-13T23:22:02.217Z,6.30
2019-01-13T23:24:31.091Z,6.22
2019-01-13T23:26:59.952Z,6.24
2019-01-13T23:29:28.772Z,6.20
2019-01-13T23:31:57.850Z,6.19
2019-01-13T23:34:27.021Z,6.21
2019-01-13T23:36:56.135Z,6.18
2019-01-13T23:39:25.064Z,6.23
2019-01-13T23:41:53.938Z,6.22
2019-01-13T23:44:22.884Z,6.22
2019-01-13T23:46:51.798Z,6.15
2019-01-13T23:49:21.125Z,6.12
2019-01-13T23:51:51.730Z,6.12
2019-01-13T23:54:20.713Z,6.02
2019-01-13T23:56:49.668Z,6.02
2019-01-13T23:59:18.543Z,6.01
